sensor_id;sensor_type;location;lat;lon;timestamp;P1;durP1;ratioP1;P2;durP2;ratioP2
58446;SDS011;44240;51.840;7.258;2023-11-21T00:02:23;16.58;;;8.15;;
58446;SDS011;44240;51.840;7.258;2023-11-21T00:04:50;15.80;;;7.82;;
58446;SDS011;44240;51.840;7.258;2023-11-21T00:07:18;18.27;;;8.43;;
58446;SDS011;44240;51.840;7.258;2023-11-21T00:09:45;18.30;;;8.13;;
58446;SDS011;44240;51.840;7.258;2023-11-21T00:12:12;12.23;;;8.35;;
58446;SDS011;44240;51.840;7.258;2023-11-21T00:14:40;19.63;;;9.75;;
58446;SDS011;44240;51.840;7.258;2023-11-21T00:17:06;18.13;;;8.90;;
58446;SDS011;44240;51.840;7.258;2023-11-21T00:19:33;18.48;;;8.55;;
58446;SDS011;44240;51.840;7.258;2023-11-21T00:22:01;18.33;;;8.32;;
58446;SDS011;44240;51.840;7.258;2023-11-21T00:24:28;18.52;;;9.18;;
58446;SDS011;44240;51.840;7.258;2023-11-21T00:26:54;15.50;;;8.13;;
58446;SDS011;44240;51.840;7.258;2023-11-21T00:29:21;22.45;;;8.55;;
58446;SDS011;44240;51.840;7.258;2023-11-21T00:31:48;22.90;;;9.13;;
58446;SDS011;44240;51.840;7.258;2023-11-21T00:34:15;17.92;;;8.73;;
58446;SDS011;44240;51.840;7.258;2023-11-21T00:36:41;21.20;;;8.60;;
58446;SDS011;44240;51.840;7.258;2023-11-21T00:39:08;20.50;;;9.73;;
58446;SDS011;44240;51.840;7.258;2023-11-21T00:41:35;17.08;;;8.80;;
58446;SDS011;44240;51.840;7.258;2023-11-21T00:44:02;17.45;;;9.07;;
58446;SDS011;44240;51.840;7.258;2023-11-21T00:46:30;20.85;;;9.98;;
58446;SDS011;44240;51.840;7.258;2023-11-21T00:48:58;15.57;;;8.82;;
58446;SDS011;44240;51.840;7.258;2023-11-21T00:51:25;18.33;;;9.07;;
58446;SDS011;44240;51.840;7.258;2023-11-21T00:53:52;13.65;;;8.02;;
58446;SDS011;44240;51.840;7.258;2023-11-21T00:56:19;20.63;;;9.75;;
58446;SDS011;44240;51.840;7.258;2023-11-21T00:58:45;19.00;;;9.02;;
58446;SDS011;44240;51.840;7.258;2023-11-21T01:01:16;13.77;;;8.82;;
58446;SDS011;44240;51.840;7.258;2023-11-21T01:03:43;21.48;;;8.00;;
58446;SDS011;44240;51.840;7.258;2023-11-21T01:06:12;17.83;;;7.95;;
58446;SDS011;44240;51.840;7.258;2023-11-21T01:08:41;20.48;;;7.55;;
58446;SDS011;44240;51.840;7.258;2023-11-21T01:11:10;16.90;;;7.57;;
58446;SDS011;44240;51.840;7.258;2023-11-21T01:13:38;13.40;;;7.65;;
58446;SDS011;44240;51.840;7.258;2023-11-21T01:16:06;15.40;;;7.60;;
58446;SDS011;44240;51.840;7.258;2023-11-21T01:18:34;19.67;;;8.82;;
58446;SDS011;44240;51.840;7.258;2023-11-21T01:21:01;13.38;;;7.25;;
58446;SDS011;44240;51.840;7.258;2023-11-21T01:23:28;14.90;;;7.15;;
58446;SDS011;44240;51.840;7.258;2023-11-21T01:25:56;14.57;;;7.88;;
58446;SDS011;44240;51.840;7.258;2023-11-21T01:28:23;14.77;;;7.82;;
58446;SDS011;44240;51.840;7.258;2023-11-21T01:30:50;17.23;;;7.97;;
58446;SDS011;44240;51.840;7.258;2023-11-21T01:33:18;15.05;;;7.90;;
58446;SDS011;44240;51.840;7.258;2023-11-21T01:35:45;18.10;;;8.30;;
58446;SDS011;44240;51.840;7.258;2023-11-21T01:38:12;18.90;;;9.27;;
58446;SDS011;44240;51.840;7.258;2023-11-21T01:40:39;18.42;;;8.50;;
58446;SDS011;44240;51.840;7.258;2023-11-21T01:43:06;16.45;;;8.45;;
58446;SDS011;44240;51.840;7.258;2023-11-21T01:45:34;12.68;;;7.10;;
58446;SDS011;44240;51.840;7.258;2023-11-21T01:48:01;13.55;;;7.43;;
58446;SDS011;44240;51.840;7.258;2023-11-21T01:50:29;25.48;;;10.20;;
58446;SDS011;44240;51.840;7.258;2023-11-21T01:52:57;22.20;;;9.02;;
58446;SDS011;44240;51.840;7.258;2023-11-21T01:55:24;20.20;;;7.97;;
58446;SDS011;44240;51.840;7.258;2023-11-21T01:57:55;18.30;;;8.73;;
58446;SDS011;44240;51.840;7.258;2023-11-21T02:00:24;16.88;;;7.82;;
58446;SDS011;44240;51.840;7.258;2023-11-21T02:02:51;17.58;;;7.65;;
58446;SDS011;44240;51.840;7.258;2023-11-21T02:05:19;18.02;;;7.70;;
58446;SDS011;44240;51.840;7.258;2023-11-21T02:07:47;13.80;;;7.28;;
58446;SDS011;44240;51.840;7.258;2023-11-21T02:10:15;15.23;;;8.60;;
58446;SDS011;44240;51.840;7.258;2023-11-21T02:12:43;17.40;;;8.40;;
58446;SDS011;44240;51.840;7.258;2023-11-21T02:15:12;13.93;;;7.78;;
58446;SDS011;44240;51.840;7.258;2023-11-21T02:17:50;17.85;;;7.55;;
58446;SDS011;44240;51.840;7.258;2023-11-21T02:20:19;14.18;;;6.93;;
58446;SDS011;44240;51.840;7.258;2023-11-21T02:22:52;18.88;;;8.15;;
58446;SDS011;44240;51.840;7.258;2023-11-21T02:25:28;13.73;;;6.80;;
58446;SDS011;44240;51.840;7.258;2023-11-21T02:27:56;13.10;;;6.97;;
58446;SDS011;44240;51.840;7.258;2023-11-21T02:30:24;13.27;;;7.03;;
58446;SDS011;44240;51.840;7.258;2023-11-21T02:32:54;14.10;;;7.22;;
58446;SDS011;44240;51.840;7.258;2023-11-21T02:35:24;13.43;;;7.18;;
58446;SDS011;44240;51.840;7.258;2023-11-21T02:37:54;14.38;;;7.40;;
58446;SDS011;44240;51.840;7.258;2023-11-21T02:40:21;15.95;;;8.25;;
58446;SDS011;44240;51.840;7.258;2023-11-21T02:42:50;18.45;;;7.50;;
58446;SDS011;44240;51.840;7.258;2023-11-21T02:45:19;13.35;;;7.40;;
58446;SDS011;44240;51.840;7.258;2023-11-21T02:47:47;16.55;;;8.15;;
58446;SDS011;44240;51.840;7.258;2023-11-21T02:50:15;15.05;;;7.32;;
58446;SDS011;44240;51.840;7.258;2023-11-21T02:52:45;17.08;;;7.68;;
58446;SDS011;44240;51.840;7.258;2023-11-21T02:55:13;16.95;;;8.55;;
58446;SDS011;44240;51.840;7.258;2023-11-21T02:57:40;16.88;;;7.03;;
58446;SDS011;44240;51.840;7.258;2023-11-21T03:00:06;17.65;;;7.75;;
58446;SDS011;44240;51.840;7.258;2023-11-21T03:02:34;14.90;;;8.02;;
58446;SDS011;44240;51.840;7.258;2023-11-21T03:07:32;13.35;;;7.43;;
58446;SDS011;44240;51.840;7.258;2023-11-21T03:09:59;15.45;;;8.00;;
58446;SDS011;44240;51.840;7.258;2023-11-21T03:12:26;15.70;;;8.15;;
58446;SDS011;44240;51.840;7.258;2023-11-21T03:14:53;18.48;;;8.20;;
58446;SDS011;44240;51.840;7.258;2023-11-21T03:17:20;13.13;;;7.15;;
58446;SDS011;44240;51.840;7.258;2023-11-21T03:19:47;17.98;;;8.75;;
58446;SDS011;44240;51.840;7.258;2023-11-21T03:22:14;15.65;;;7.95;;
58446;SDS011;44240;51.840;7.258;2023-11-21T03:24:41;15.18;;;7.85;;
58446;SDS011;44240;51.840;7.258;2023-11-21T03:27:07;17.65;;;8.95;;
58446;SDS011;44240;51.840;7.258;2023-11-21T03:29:34;21.08;;;10.00;;
58446;SDS011;44240;51.840;7.258;2023-11-21T03:32:01;19.77;;;9.40;;
58446;SDS011;44240;51.840;7.258;2023-11-21T03:34:28;16.80;;;8.20;;
58446;SDS011;44240;51.840;7.258;2023-11-21T03:36:55;24.23;;;10.05;;
58446;SDS011;44240;51.840;7.258;2023-11-21T03:39:22;23.00;;;9.48;;
58446;SDS011;44240;51.840;7.258;2023-11-21T03:41:49;18.80;;;8.63;;
58446;SDS011;44240;51.840;7.258;2023-11-21T03:44:16;18.42;;;8.88;;
58446;SDS011;44240;51.840;7.258;2023-11-21T03:46:44;18.42;;;8.95;;
58446;SDS011;44240;51.840;7.258;2023-11-21T03:49:11;16.23;;;7.55;;
58446;SDS011;44240;51.840;7.258;2023-11-21T03:51:38;19.58;;;8.98;;
58446;SDS011;44240;51.840;7.258;2023-11-21T03:54:05;23.75;;;8.45;;
58446;SDS011;44240;51.840;7.258;2023-11-21T03:56:32;17.67;;;8.32;;
58446;SDS011;44240;51.840;7.258;2023-11-21T03:58:59;15.32;;;7.85;;
58446;SDS011;44240;51.840;7.258;2023-11-21T04:01:26;16.98;;;7.47;;
58446;SDS011;44240;51.840;7.258;2023-11-21T04:03:52;18.40;;;7.97;;
58446;SDS011;44240;51.840;7.258;2023-11-21T04:06:19;17.08;;;8.48;;
58446;SDS011;44240;51.840;7.258;2023-11-21T04:08:46;14.45;;;8.00;;
58446;SDS011;44240;51.840;7.258;2023-11-21T04:11:13;17.63;;;8.82;;
58446;SDS011;44240;51.840;7.258;2023-11-21T04:13:40;17.50;;;8.48;;
58446;SDS011;44240;51.840;7.258;2023-11-21T04:16:08;14.63;;;7.43;;
58446;SDS011;44240;51.840;7.258;2023-11-21T04:18:36;17.17;;;8.15;;
58446;SDS011;44240;51.840;7.258;2023-11-21T04:21:04;17.17;;;8.18;;
58446;SDS011;44240;51.840;7.258;2023-11-21T04:23:32;21.35;;;8.65;;
58446;SDS011;44240;51.840;7.258;2023-11-21T04:25:58;15.15;;;8.15;;
58446;SDS011;44240;51.840;7.258;2023-11-21T04:28:26;16.92;;;8.13;;
58446;SDS011;44240;51.840;7.258;2023-11-21T04:30:52;12.88;;;7.28;;
58446;SDS011;44240;51.840;7.258;2023-11-21T04:33:19;14.75;;;9.02;;
58446;SDS011;44240;51.840;7.258;2023-11-21T04:35:47;15.75;;;9.07;;
58446;SDS011;44240;51.840;7.258;2023-11-21T04:38:14;15.48;;;7.82;;
58446;SDS011;44240;51.840;7.258;2023-11-21T04:40:41;11.23;;;7.05;;
58446;SDS011;44240;51.840;7.258;2023-11-21T04:43:08;16.42;;;10.07;;
58446;SDS011;44240;51.840;7.258;2023-11-21T04:45:34;12.82;;;7.93;;
58446;SDS011;44240;51.840;7.258;2023-11-21T04:48:01;14.32;;;7.85;;
58446;SDS011;44240;51.840;7.258;2023-11-21T04:50:28;18.15;;;8.48;;
58446;SDS011;44240;51.840;7.258;2023-11-21T04:52:55;16.85;;;8.20;;
58446;SDS011;44240;51.840;7.258;2023-11-21T04:55:21;14.30;;;7.60;;
58446;SDS011;44240;51.840;7.258;2023-11-21T04:57:48;14.13;;;7.82;;
58446;SDS011;44240;51.840;7.258;2023-11-21T05:00:15;20.70;;;8.80;;
58446;SDS011;44240;51.840;7.258;2023-11-21T05:02:42;14.25;;;8.20;;
58446;SDS011;44240;51.840;7.258;2023-11-21T05:05:11;14.77;;;8.00;;
58446;SDS011;44240;51.840;7.258;2023-11-21T05:07:41;18.40;;;9.25;;
58446;SDS011;44240;51.840;7.258;2023-11-21T05:10:09;18.10;;;9.98;;
58446;SDS011;44240;51.840;7.258;2023-11-21T05:12:39;20.50;;;10.00;;
58446;SDS011;44240;51.840;7.258;2023-11-21T05:15:06;18.45;;;9.38;;
58446;SDS011;44240;51.840;7.258;2023-11-21T05:17:37;15.85;;;8.93;;
58446;SDS011;44240;51.840;7.258;2023-11-21T05:20:25;22.02;;;10.43;;
58446;SDS011;44240;51.840;7.258;2023-11-21T05:22:52;27.48;;;12.40;;
58446;SDS011;44240;51.840;7.258;2023-11-21T05:25:18;41.50;;;14.93;;
58446;SDS011;44240;51.840;7.258;2023-11-21T05:27:46;35.15;;;13.38;;
58446;SDS011;44240;51.840;7.258;2023-11-21T05:30:13;32.15;;;12.43;;
58446;SDS011;44240;51.840;7.258;2023-11-21T05:32:40;28.17;;;13.25;;
58446;SDS011;44240;51.840;7.258;2023-11-21T05:35:10;21.65;;;10.90;;
58446;SDS011;44240;51.840;7.258;2023-11-21T05:37:43;28.60;;;11.45;;
58446;SDS011;44240;51.840;7.258;2023-11-21T05:40:11;35.80;;;12.15;;
58446;SDS011;44240;51.840;7.258;2023-11-21T05:42:39;35.15;;;13.30;;
58446;SDS011;44240;51.840;7.258;2023-11-21T05:45:07;24.88;;;12.07;;
58446;SDS011;44240;51.840;7.258;2023-11-21T05:47:42;32.75;;;12.15;;
58446;SDS011;44240;51.840;7.258;2023-11-21T05:52:39;26.02;;;10.55;;
58446;SDS011;44240;51.840;7.258;2023-11-21T05:55:06;38.80;;;15.20;;
58446;SDS011;44240;51.840;7.258;2023-11-21T05:57:34;48.00;;;16.23;;
58446;SDS011;44240;51.840;7.258;2023-11-21T06:00:08;68.78;;;17.25;;
58446;SDS011;44240;51.840;7.258;2023-11-21T06:02:49;49.30;;;17.23;;
58446;SDS011;44240;51.840;7.258;2023-11-21T06:05:17;74.80;;;18.05;;
58446;SDS011;44240;51.840;7.258;2023-11-21T06:07:45;78.40;;;18.48;;
58446;SDS011;44240;51.840;7.258;2023-11-21T06:10:12;86.35;;;19.42;;
58446;SDS011;44240;51.840;7.258;2023-11-21T06:12:40;95.38;;;20.42;;
58446;SDS011;44240;51.840;7.258;2023-11-21T06:15:09;112.07;;;21.63;;
58446;SDS011;44240;51.840;7.258;2023-11-21T06:17:39;95.10;;;20.58;;
58446;SDS011;44240;51.840;7.258;2023-11-21T06:20:08;99.50;;;22.60;;
58446;SDS011;44240;51.840;7.258;2023-11-21T06:22:41;47.78;;;16.48;;
58446;SDS011;44240;51.840;7.258;2023-11-21T06:25:08;92.13;;;20.75;;
58446;SDS011;44240;51.840;7.258;2023-11-21T06:27:45;214.10;;;30.67;;
58446;SDS011;44240;51.840;7.258;2023-11-21T06:30:16;77.80;;;19.65;;
58446;SDS011;44240;51.840;7.258;2023-11-21T06:32:46;112.32;;;23.65;;
58446;SDS011;44240;51.840;7.258;2023-11-21T06:35:14;102.60;;;23.30;;
58446;SDS011;44240;51.840;7.258;2023-11-21T06:37:42;57.05;;;16.95;;
58446;SDS011;44240;51.840;7.258;2023-11-21T06:40:14;41.88;;;14.98;;
58446;SDS011;44240;51.840;7.258;2023-11-21T06:42:45;118.10;;;21.17;;
58446;SDS011;44240;51.840;7.258;2023-11-21T06:45:13;68.57;;;19.83;;
58446;SDS011;44240;51.840;7.258;2023-11-21T06:47:41;105.32;;;21.55;;
58446;SDS011;44240;51.840;7.258;2023-11-21T06:50:08;125.03;;;23.38;;
58446;SDS011;44240;51.840;7.258;2023-11-21T06:52:35;61.95;;;17.85;;
58446;SDS011;44240;51.840;7.258;2023-11-21T06:55:02;83.20;;;19.35;;
58446;SDS011;44240;51.840;7.258;2023-11-21T06:57:29;86.80;;;18.42;;
58446;SDS011;44240;51.840;7.258;2023-11-21T06:59:57;94.88;;;21.17;;
58446;SDS011;44240;51.840;7.258;2023-11-21T07:02:23;77.15;;;19.65;;
58446;SDS011;44240;51.840;7.258;2023-11-21T07:04:50;56.88;;;17.15;;
58446;SDS011;44240;51.840;7.258;2023-11-21T07:07:18;64.65;;;17.90;;
58446;SDS011;44240;51.840;7.258;2023-11-21T07:09:45;82.60;;;18.77;;
58446;SDS011;44240;51.840;7.258;2023-11-21T07:12:12;73.90;;;20.20;;
58446;SDS011;44240;51.840;7.258;2023-11-21T07:14:40;44.83;;;18.20;;
58446;SDS011;44240;51.840;7.258;2023-11-21T07:17:09;75.60;;;17.83;;
58446;SDS011;44240;51.840;7.258;2023-11-21T07:19:36;66.97;;;17.70;;
58446;SDS011;44240;51.840;7.258;2023-11-21T07:22:03;82.47;;;19.05;;
58446;SDS011;44240;51.840;7.258;2023-11-21T07:24:32;42.10;;;15.85;;
58446;SDS011;44240;51.840;7.258;2023-11-21T07:26:58;60.90;;;17.58;;
58446;SDS011;44240;51.840;7.258;2023-11-21T07:29:25;63.25;;;19.55;;
58446;SDS011;44240;51.840;7.258;2023-11-21T07:31:52;60.40;;;17.92;;
58446;SDS011;44240;51.840;7.258;2023-11-21T07:34:20;48.25;;;15.68;;
58446;SDS011;44240;51.840;7.258;2023-11-21T07:36:47;66.35;;;17.23;;
58446;SDS011;44240;51.840;7.258;2023-11-21T07:39:14;49.05;;;17.42;;
58446;SDS011;44240;51.840;7.258;2023-11-21T07:41:44;50.28;;;16.50;;
58446;SDS011;44240;51.840;7.258;2023-11-21T07:44:15;100.22;;;21.08;;
58446;SDS011;44240;51.840;7.258;2023-11-21T07:46:43;50.17;;;15.77;;
58446;SDS011;44240;51.840;7.258;2023-11-21T07:49:10;61.05;;;18.02;;
58446;SDS011;44240;51.840;7.258;2023-11-21T07:51:37;36.53;;;14.02;;
58446;SDS011;44240;51.840;7.258;2023-11-21T07:54:04;107.03;;;21.48;;
58446;SDS011;44240;51.840;7.258;2023-11-21T07:56:31;34.08;;;14.43;;
58446;SDS011;44240;51.840;7.258;2023-11-21T07:58:58;69.10;;;18.65;;
58446;SDS011;44240;51.840;7.258;2023-11-21T08:01:25;34.53;;;14.05;;
58446;SDS011;44240;51.840;7.258;2023-11-21T08:03:54;37.47;;;14.82;;
58446;SDS011;44240;51.840;7.258;2023-11-21T08:06:23;35.35;;;14.02;;
58446;SDS011;44240;51.840;7.258;2023-11-21T08:08:51;33.35;;;13.93;;
58446;SDS011;44240;51.840;7.258;2023-11-21T08:11:18;39.72;;;15.35;;
58446;SDS011;44240;51.840;7.258;2023-11-21T08:13:47;30.88;;;13.32;;
58446;SDS011;44240;51.840;7.258;2023-11-21T08:16:14;36.63;;;15.40;;
58446;SDS011;44240;51.840;7.258;2023-11-21T08:18:41;40.95;;;15.40;;
58446;SDS011;44240;51.840;7.258;2023-11-21T08:21:08;45.33;;;14.85;;
58446;SDS011;44240;51.840;7.258;2023-11-21T08:23:35;43.67;;;15.05;;
58446;SDS011;44240;51.840;7.258;2023-11-21T08:26:01;39.20;;;15.30;;
58446;SDS011;44240;51.840;7.258;2023-11-21T08:28:31;37.40;;;14.70;;
58446;SDS011;44240;51.840;7.258;2023-11-21T08:30:58;46.80;;;14.40;;
58446;SDS011;44240;51.840;7.258;2023-11-21T08:33:27;62.65;;;17.20;;
58446;SDS011;44240;51.840;7.258;2023-11-21T08:35:54;38.65;;;14.38;;
58446;SDS011;44240;51.840;7.258;2023-11-21T08:38:21;43.20;;;15.77;;
58446;SDS011;44240;51.840;7.258;2023-11-21T08:40:48;36.08;;;14.27;;
58446;SDS011;44240;51.840;7.258;2023-11-21T08:43:15;31.40;;;13.88;;
58446;SDS011;44240;51.840;7.258;2023-11-21T08:45:42;30.67;;;12.90;;
58446;SDS011;44240;51.840;7.258;2023-11-21T08:48:09;35.58;;;14.25;;
58446;SDS011;44240;51.840;7.258;2023-11-21T08:50:37;44.85;;;16.67;;
58446;SDS011;44240;51.840;7.258;2023-11-21T08:53:04;38.80;;;15.48;;
58446;SDS011;44240;51.840;7.258;2023-11-21T08:55:32;31.08;;;13.73;;
58446;SDS011;44240;51.840;7.258;2023-11-21T08:58:03;91.25;;;20.63;;
58446;SDS011;44240;51.840;7.258;2023-11-21T09:00:32;42.47;;;15.10;;
58446;SDS011;44240;51.840;7.258;2023-11-21T09:03:00;84.55;;;19.63;;
58446;SDS011;44240;51.840;7.258;2023-11-21T09:05:28;46.63;;;16.98;;
58446;SDS011;44240;51.840;7.258;2023-11-21T09:07:55;57.80;;;17.05;;
58446;SDS011;44240;51.840;7.258;2023-11-21T09:10:21;43.15;;;15.63;;
58446;SDS011;44240;51.840;7.258;2023-11-21T09:12:50;94.25;;;20.33;;
58446;SDS011;44240;51.840;7.258;2023-11-21T09:15:18;61.00;;;17.60;;
58446;SDS011;44240;51.840;7.258;2023-11-21T09:17:46;37.03;;;15.40;;
58446;SDS011;44240;51.840;7.258;2023-11-21T09:20:14;40.67;;;15.73;;
58446;SDS011;44240;51.840;7.258;2023-11-21T09:22:41;52.13;;;17.48;;
58446;SDS011;44240;51.840;7.258;2023-11-21T09:25:08;45.72;;;16.20;;
58446;SDS011;44240;51.840;7.258;2023-11-21T09:27:35;40.50;;;15.80;;
58446;SDS011;44240;51.840;7.258;2023-11-21T09:30:02;114.72;;;23.67;;
58446;SDS011;44240;51.840;7.258;2023-11-21T09:32:31;95.43;;;22.73;;
58446;SDS011;44240;51.840;7.258;2023-11-21T09:34:58;47.00;;;17.23;;
58446;SDS011;44240;51.840;7.258;2023-11-21T09:37:26;50.33;;;16.58;;
58446;SDS011;44240;51.840;7.258;2023-11-21T09:39:54;81.32;;;21.23;;
58446;SDS011;44240;51.840;7.258;2023-11-21T09:42:23;36.83;;;15.18;;
58446;SDS011;44240;51.840;7.258;2023-11-21T09:45:03;39.28;;;16.35;;
58446;SDS011;44240;51.840;7.258;2023-11-21T09:47:38;41.03;;;16.85;;
58446;SDS011;44240;51.840;7.258;2023-11-21T09:50:05;38.45;;;16.55;;
58446;SDS011;44240;51.840;7.258;2023-11-21T09:52:44;40.25;;;16.83;;
58446;SDS011;44240;51.840;7.258;2023-11-21T09:55:37;42.78;;;15.65;;
58446;SDS011;44240;51.840;7.258;2023-11-21T09:58:08;46.35;;;17.10;;
58446;SDS011;44240;51.840;7.258;2023-11-21T10:00:41;37.47;;;16.45;;
58446;SDS011;44240;51.840;7.258;2023-11-21T10:03:09;41.95;;;15.48;;
58446;SDS011;44240;51.840;7.258;2023-11-21T10:05:37;34.85;;;15.20;;
58446;SDS011;44240;51.840;7.258;2023-11-21T10:08:07;42.63;;;17.50;;
58446;SDS011;44240;51.840;7.258;2023-11-21T10:10:36;45.17;;;16.60;;
58446;SDS011;44240;51.840;7.258;2023-11-21T10:13:05;46.20;;;15.95;;
58446;SDS011;44240;51.840;7.258;2023-11-21T10:15:34;41.50;;;16.73;;
58446;SDS011;44240;51.840;7.258;2023-11-21T10:18:04;43.30;;;16.17;;
58446;SDS011;44240;51.840;7.258;2023-11-21T10:20:33;40.72;;;17.95;;
58446;SDS011;44240;51.840;7.258;2023-11-21T10:23:00;45.53;;;18.13;;
58446;SDS011;44240;51.840;7.258;2023-11-21T10:25:29;40.22;;;15.60;;
58446;SDS011;44240;51.840;7.258;2023-11-21T10:27:57;38.05;;;17.83;;
58446;SDS011;44240;51.840;7.258;2023-11-21T10:30:27;41.22;;;16.67;;
58446;SDS011;44240;51.840;7.258;2023-11-21T10:35:47;33.90;;;14.68;;
58446;SDS011;44240;51.840;7.258;2023-11-21T10:38:19;31.85;;;14.55;;
58446;SDS011;44240;51.840;7.258;2023-11-21T10:40:51;37.08;;;15.13;;
58446;SDS011;44240;51.840;7.258;2023-11-21T10:43:18;30.33;;;13.85;;
58446;SDS011;44240;51.840;7.258;2023-11-21T10:45:45;38.63;;;15.65;;
58446;SDS011;44240;51.840;7.258;2023-11-21T10:48:13;29.65;;;13.00;;
58446;SDS011;44240;51.840;7.258;2023-11-21T10:50:44;26.98;;;12.48;;
58446;SDS011;44240;51.840;7.258;2023-11-21T10:53:12;30.73;;;13.32;;
58446;SDS011;44240;51.840;7.258;2023-11-21T10:55:39;31.17;;;13.00;;
58446;SDS011;44240;51.840;7.258;2023-11-21T10:58:07;29.48;;;13.00;;
58446;SDS011;44240;51.840;7.258;2023-11-21T11:00:37;32.33;;;13.60;;
58446;SDS011;44240;51.840;7.258;2023-11-21T11:03:06;25.75;;;11.75;;
58446;SDS011;44240;51.840;7.258;2023-11-21T11:05:40;25.23;;;11.80;;
58446;SDS011;44240;51.840;7.258;2023-11-21T11:08:10;28.23;;;11.77;;
58446;SDS011;44240;51.840;7.258;2023-11-21T11:10:38;24.25;;;11.80;;
58446;SDS011;44240;51.840;7.258;2023-11-21T11:13:07;23.85;;;10.52;;
58446;SDS011;44240;51.840;7.258;2023-11-21T11:15:35;28.25;;;12.02;;
58446;SDS011;44240;51.840;7.258;2023-11-21T11:18:02;26.63;;;11.60;;
58446;SDS011;44240;51.840;7.258;2023-11-21T11:20:32;24.95;;;11.15;;
58446;SDS011;44240;51.840;7.258;2023-11-21T11:23:13;24.70;;;10.80;;
58446;SDS011;44240;51.840;7.258;2023-11-21T11:26:00;21.88;;;10.75;;
58446;SDS011;44240;51.840;7.258;2023-11-21T11:34:23;24.20;;;9.77;;
58446;SDS011;44240;51.840;7.258;2023-11-21T11:37:00;18.50;;;9.57;;
58446;SDS011;44240;51.840;7.258;2023-11-21T11:39:30;21.63;;;9.52;;
58446;SDS011;44240;51.840;7.258;2023-11-21T11:41:58;21.92;;;9.82;;
58446;SDS011;44240;51.840;7.258;2023-11-21T11:44:46;22.83;;;10.35;;
58446;SDS011;44240;51.840;7.258;2023-11-21T11:47:22;23.83;;;10.15;;
58446;SDS011;44240;51.840;7.258;2023-11-21T11:50:08;23.23;;;10.35;;
58446;SDS011;44240;51.840;7.258;2023-11-21T11:52:52;24.13;;;11.13;;
58446;SDS011;44240;51.840;7.258;2023-11-21T11:55:21;22.60;;;10.38;;
58446;SDS011;44240;51.840;7.258;2023-11-21T11:57:50;22.75;;;9.23;;
58446;SDS011;44240;51.840;7.258;2023-11-21T12:00:20;23.20;;;10.43;;
58446;SDS011;44240;51.840;7.258;2023-11-21T12:02:55;19.83;;;9.75;;
58446;SDS011;44240;51.840;7.258;2023-11-21T12:05:25;19.40;;;9.07;;
58446;SDS011;44240;51.840;7.258;2023-11-21T12:08:02;20.40;;;9.27;;
58446;SDS011;44240;51.840;7.258;2023-11-21T12:10:31;18.90;;;8.70;;
58446;SDS011;44240;51.840;7.258;2023-11-21T12:13:09;20.33;;;9.00;;
58446;SDS011;44240;51.840;7.258;2023-11-21T12:15:38;18.17;;;9.30;;
58446;SDS011;44240;51.840;7.258;2023-11-21T12:18:07;19.98;;;9.18;;
58446;SDS011;44240;51.840;7.258;2023-11-21T12:20:34;19.55;;;8.75;;
58446;SDS011;44240;51.840;7.258;2023-11-21T12:23:05;18.60;;;9.48;;
58446;SDS011;44240;51.840;7.258;2023-11-21T12:25:33;20.33;;;9.05;;
58446;SDS011;44240;51.840;7.258;2023-11-21T12:28:01;18.73;;;9.52;;
58446;SDS011;44240;51.840;7.258;2023-11-21T12:30:30;17.20;;;7.65;;
58446;SDS011;44240;51.840;7.258;2023-11-21T12:32:58;16.52;;;8.75;;
58446;SDS011;44240;51.840;7.258;2023-11-21T12:35:31;14.80;;;7.40;;
58446;SDS011;44240;51.840;7.258;2023-11-21T12:38:01;19.33;;;8.25;;
58446;SDS011;44240;51.840;7.258;2023-11-21T12:40:29;17.55;;;8.48;;
58446;SDS011;44240;51.840;7.258;2023-11-21T12:42:56;16.70;;;6.78;;
58446;SDS011;44240;51.840;7.258;2023-11-21T12:45:25;16.08;;;6.80;;
58446;SDS011;44240;51.840;7.258;2023-11-21T12:48:00;15.52;;;6.68;;
58446;SDS011;44240;51.840;7.258;2023-11-21T12:50:35;18.13;;;7.57;;
58446;SDS011;44240;51.840;7.258;2023-11-21T12:53:05;16.80;;;8.02;;
58446;SDS011;44240;51.840;7.258;2023-11-21T12:55:36;15.95;;;7.55;;
58446;SDS011;44240;51.840;7.258;2023-11-21T12:58:08;14.10;;;6.60;;
58446;SDS011;44240;51.840;7.258;2023-11-21T13:00:44;14.80;;;7.18;;
58446;SDS011;44240;51.840;7.258;2023-11-21T13:03:14;15.75;;;6.80;;
58446;SDS011;44240;51.840;7.258;2023-11-21T13:05:47;12.52;;;5.90;;
58446;SDS011;44240;51.840;7.258;2023-11-21T13:08:20;12.45;;;5.88;;
58446;SDS011;44240;51.840;7.258;2023-11-21T13:10:51;13.15;;;7.30;;
58446;SDS011;44240;51.840;7.258;2023-11-21T13:13:21;15.85;;;7.55;;
58446;SDS011;44240;51.840;7.258;2023-11-21T13:15:51;11.77;;;6.53;;
58446;SDS011;44240;51.840;7.258;2023-11-21T13:18:27;11.85;;;5.47;;
58446;SDS011;44240;51.840;7.258;2023-11-21T13:20:55;12.05;;;5.20;;
58446;SDS011;44240;51.840;7.258;2023-11-21T13:23:24;11.77;;;5.43;;
58446;SDS011;44240;51.840;7.258;2023-11-21T13:25:52;11.70;;;5.45;;
58446;SDS011;44240;51.840;7.258;2023-11-21T13:28:30;11.55;;;7.00;;
58446;SDS011;44240;51.840;7.258;2023-11-21T13:31:00;10.77;;;6.25;;
58446;SDS011;44240;51.840;7.258;2023-11-21T13:33:47;10.50;;;5.85;;
58446;SDS011;44240;51.840;7.258;2023-11-21T13:36:23;9.75;;;5.70;;
58446;SDS011;44240;51.840;7.258;2023-11-21T13:38:50;12.13;;;5.70;;
58446;SDS011;44240;51.840;7.258;2023-11-21T13:41:18;10.98;;;5.10;;
58446;SDS011;44240;51.840;7.258;2023-11-21T13:43:46;10.77;;;5.72;;
58446;SDS011;44240;51.840;7.258;2023-11-21T13:46:16;9.77;;;5.75;;
58446;SDS011;44240;51.840;7.258;2023-11-21T13:48:48;13.30;;;6.75;;
58446;SDS011;44240;51.840;7.258;2023-11-21T13:51:22;13.32;;;6.25;;
58446;SDS011;44240;51.840;7.258;2023-11-21T13:53:57;11.88;;;6.28;;
58446;SDS011;44240;51.840;7.258;2023-11-21T13:56:25;10.45;;;5.15;;
58446;SDS011;44240;51.840;7.258;2023-11-21T13:58:54;10.65;;;5.93;;
58446;SDS011;44240;51.840;7.258;2023-11-21T14:01:26;8.90;;;5.90;;
58446;SDS011;44240;51.840;7.258;2023-11-21T14:04:02;9.98;;;5.70;;
58446;SDS011;44240;51.840;7.258;2023-11-21T14:06:42;8.85;;;5.43;;
58446;SDS011;44240;51.840;7.258;2023-11-21T14:09:20;10.70;;;6.18;;
58446;SDS011;44240;51.840;7.258;2023-11-21T14:11:52;12.13;;;7.03;;
58446;SDS011;44240;51.840;7.258;2023-11-21T14:14:23;11.40;;;6.88;;
58446;SDS011;44240;51.840;7.258;2023-11-21T14:16:56;11.82;;;7.00;;
58446;SDS011;44240;51.840;7.258;2023-11-21T14:19:24;11.45;;;7.28;;
58446;SDS011;44240;51.840;7.258;2023-11-21T14:21:57;11.25;;;7.13;;
58446;SDS011;44240;51.840;7.258;2023-11-21T14:24:24;12.77;;;6.80;;
58446;SDS011;44240;51.840;7.258;2023-11-21T14:26:51;9.18;;;6.18;;
58446;SDS011;44240;51.840;7.258;2023-11-21T14:29:19;11.02;;;6.75;;
58446;SDS011;44240;51.840;7.258;2023-11-21T14:31:46;10.15;;;6.47;;
58446;SDS011;44240;51.840;7.258;2023-11-21T14:34:14;13.00;;;7.10;;
58446;SDS011;44240;51.840;7.258;2023-11-21T14:39:12;11.90;;;6.70;;
58446;SDS011;44240;51.840;7.258;2023-11-21T14:41:49;13.95;;;9.05;;
58446;SDS011;44240;51.840;7.258;2023-11-21T14:44:16;12.30;;;8.23;;
58446;SDS011;44240;51.840;7.258;2023-11-21T14:46:43;14.00;;;8.10;;
58446;SDS011;44240;51.840;7.258;2023-11-21T14:49:12;14.63;;;8.18;;
58446;SDS011;44240;51.840;7.258;2023-11-21T14:51:52;15.18;;;8.85;;
58446;SDS011;44240;51.840;7.258;2023-11-21T14:57:07;15.90;;;7.75;;
58446;SDS011;44240;51.840;7.258;2023-11-21T14:59:42;15.82;;;8.75;;